createdAt,value
2022-11-15T00:00:57.010Z,4.90
2022-11-15T00:03:25.677Z,4.87
2022-11-15T00:05:52.873Z,4.82
2022-11-15T00:08:19.761Z,4.78
2022-11-15T00:11:00.083Z,4.76
2022-11-15T00:13:30.427Z,4.76
2022-11-15T00:16:01.915Z,4.79
2022-11-15T00:18:29.769Z,4.78
2022-11-15T00:20:56.795Z,4.91
2022-11-15T00:23:24.546Z,4.83
2022-11-15T00:25:58.569Z,4.71
2022-11-15T00:28:25.879Z,4.75
2022-11-15T00:30:52.945Z,4.77
2022-11-15T00:33:19.898Z,4.87
2022-11-15T00:35:46.519Z,4.88
2022-11-15T00:38:13.144Z,4.93
2022-11-15T00:40:39.724Z,4.90
2022-11-15T00:43:06.368Z,4.76
2022-11-15T00:45:34.086Z,4.89
2022-11-15T00:48:00.743Z,4.85
2022-11-15T00:50:27.440Z,4.99
2022-11-15T00:52:54.065Z,4.92
2022-11-15T00:55:20.759Z,4.86
2022-11-15T00:57:47.674Z,4.77
2022-11-15T01:00:14.515Z,4.70
2022-11-15T01:02:41.139Z,4.72
2022-11-15T01:05:08.934Z,4.75
2022-11-15T01:07:35.644Z,4.84
2022-11-15T01:10:02.279Z,4.69
2022-11-15T01:12:29.004Z,4.74
2022-11-15T01:14:55.642Z,4.72
2022-11-15T01:17:22.254Z,4.78
2022-11-15T01:19:48.862Z,4.70
2022-11-15T01:22:15.532Z,4.72
2022-11-15T01:24:42.214Z,4.76
2022-11-15T01:27:09.515Z,4.88
2022-11-15T01:29:36.113Z,4.77
2022-11-15T01:32:02.784Z,4.69
2022-11-15T01:34:29.410Z,4.73
2022-11-15T01:36:56.017Z,4.76
2022-11-15T01:39:22.849Z,4.75
2022-11-15T01:41:49.626Z,4.68
2022-11-15T01:44:34.562Z,4.64
2022-11-15T01:47:04.574Z,4.69
2022-11-15T01:49:33.705Z,4.72
2022-11-15T01:52:02.360Z,4.75
2022-11-15T01:54:29.137Z,4.69
2022-11-15T01:57:08.623Z,4.57
2022-11-15T01:59:35.360Z,4.63
2022-11-15T02:02:02.029Z,4.58
2022-11-15T02:04:54.967Z,4.57
2022-11-15T02:07:22.840Z,4.45
2022-11-15T02:09:50.026Z,4.47
2022-11-15T02:12:20.300Z,4.48
2022-11-15T02:14:50.428Z,4.47
2022-11-15T02:17:27.469Z,4.38
2022-11-15T02:20:11.940Z,4.37
2022-11-15T02:23:11.216Z,4.33
2022-11-15T02:26:15.583Z,4.32
2022-11-15T02:28:45.428Z,4.34
2022-11-15T02:31:12.513Z,4.29
2022-11-15T02:33:55.891Z,4.21
2022-11-15T02:36:41.381Z,4.29
2022-11-15T02:39:29.250Z,4.38
2022-11-15T02:42:26.815Z,4.30
2022-11-15T02:44:54.632Z,4.22
2022-11-15T02:47:22.199Z,4.19
2022-11-15T02:49:51.038Z,4.12
2022-11-15T02:52:18.721Z,4.08
2022-11-15T02:54:57.628Z,4.09
2022-11-15T02:57:40.286Z,4.11
2022-11-15T03:00:11.996Z,4.15
2022-11-15T03:02:50.166Z,4.13
2022-11-15T03:05:39.676Z,4.11
2022-11-15T03:08:23.503Z,3.92
2022-11-15T03:11:09.592Z,3.90
2022-11-15T03:13:37.734Z,3.91
2022-11-15T03:16:09.558Z,3.78
2022-11-15T03:18:51.251Z,3.85
2022-11-15T03:21:20.060Z,3.73
2022-11-15T03:23:48.422Z,3.88
2022-11-15T03:26:15.948Z,3.83
2022-11-15T03:28:55.041Z,3.88
2022-11-15T03:31:45.686Z,3.81
2022-11-15T03:34:32.823Z,3.82
2022-11-15T03:36:59.503Z,3.67
2022-11-15T03:39:26.653Z,3.66
2022-11-15T03:42:22.714Z,3.57
2022-11-15T03:44:53.680Z,3.53
2022-11-15T03:47:49.371Z,3.62
2022-11-15T03:50:18.833Z,3.80
2022-11-15T03:52:49.479Z,3.55
2022-11-15T03:55:20.793Z,3.66
2022-11-15T03:57:50.041Z,3.41
2022-11-15T04:00:16.863Z,3.30
2022-11-15T04:02:43.562Z,3.21
2022-11-15T04:05:10.237Z,3.40
2022-11-15T04:07:36.941Z,3.18
2022-11-15T04:10:04.676Z,3.25
2022-11-15T04:12:41.586Z,3.39
2022-11-15T04:15:12.911Z,3.19
2022-11-15T04:17:45.382Z,3.07
2022-11-15T04:20:35.229Z,2.99
2022-11-15T04:23:22.969Z,2.97
2022-11-15T04:25:53.029Z,3.03
2022-11-15T04:28:20.031Z,2.93
2022-11-15T04:30:46.710Z,2.85
2022-11-15T04:33:13.366Z,2.96
2022-11-15T04:35:40.304Z,2.94
2022-11-15T04:38:08.870Z,2.88
2022-11-15T04:40:36.397Z,2.80
2022-11-15T04:43:04.068Z,2.82
2022-11-15T04:45:31.543Z,2.83
2022-11-15T04:47:58.198Z,2.85
2022-11-15T04:50:24.784Z,2.77
2022-11-15T04:52:53.544Z,2.93
2022-11-15T04:55:20.490Z,2.96
2022-11-15T04:57:47.211Z,2.79
2022-11-15T05:00:16.091Z,2.74
2022-11-15T05:03:01.683Z,2.64
2022-11-15T05:05:28.670Z,2.65
2022-11-15T05:07:55.387Z,2.65
2022-11-15T05:10:22.516Z,2.69
2022-11-15T05:13:07.435Z,2.67
2022-11-15T05:16:00.037Z,2.78
2022-11-15T05:18:26.743Z,2.66
2022-11-15T05:20:53.365Z,2.80
2022-11-15T05:23:20.052Z,2.80
2022-11-15T05:25:46.696Z,2.79
2022-11-15T05:28:13.965Z,2.85
2022-11-15T05:30:40.587Z,2.90
2022-11-15T05:33:07.413Z,2.91
2022-11-15T05:35:39.184Z,2.73
2022-11-15T05:38:05.833Z,2.80
2022-11-15T05:40:33.213Z,2.82
2022-11-15T05:43:01.080Z,2.94
2022-11-15T05:45:27.717Z,2.87
2022-11-15T05:47:55.492Z,2.77
2022-11-15T05:50:22.173Z,2.72
2022-11-15T05:52:49.318Z,2.83
2022-11-15T05:55:16.315Z,2.72
2022-11-15T05:57:42.929Z,2.70
2022-11-15T06:00:10.514Z,2.67
2022-11-15T06:02:37.206Z,2.89
2022-11-15T06:05:04.328Z,2.87
2022-11-15T06:07:32.035Z,2.84
2022-11-15T06:09:58.691Z,2.80
2022-11-15T06:12:25.294Z,2.85
2022-11-15T06:14:51.902Z,2.70
2022-11-15T06:17:18.528Z,2.86
2022-11-15T06:19:45.140Z,2.73
2022-11-15T06:22:11.750Z,2.71
2022-11-15T06:24:38.351Z,2.82
2022-11-15T06:27:04.967Z,2.74
2022-11-15T06:29:31.632Z,2.94
2022-11-15T06:31:58.274Z,2.74
2022-11-15T06:34:24.940Z,2.77
2022-11-15T06:36:51.578Z,2.77
2022-11-15T06:39:18.246Z,2.98
2022-11-15T06:41:45.031Z,2.96
2022-11-15T06:44:11.634Z,3.00
2022-11-15T06:46:38.256Z,3.12
2022-11-15T06:49:09.355Z,3.02
2022-11-15T06:51:36.522Z,2.92
2022-11-15T06:54:03.209Z,2.93
2022-11-15T06:56:29.836Z,2.92
2022-11-15T06:58:56.581Z,2.87
2022-11-15T07:01:23.322Z,2.87
2022-11-15T07:03:49.976Z,3.12
2022-11-15T07:06:16.627Z,2.98
2022-11-15T07:08:43.330Z,3.03
2022-11-15T07:11:10.023Z,2.91
2022-11-15T07:13:38.303Z,3.04
2022-11-15T07:16:06.934Z,3.09
2022-11-15T07:18:37.976Z,3.04
2022-11-15T07:21:06.343Z,3.07
2022-11-15T07:23:33.559Z,3.14
2022-11-15T07:26:00.705Z,3.06
2022-11-15T07:28:27.647Z,3.06
2022-11-15T07:30:55.078Z,3.12
2022-11-15T07:33:21.735Z,3.15
2022-11-15T07:35:51.202Z,3.15
2022-11-15T07:38:21.288Z,3.39
2022-11-15T07:40:48.391Z,3.26
2022-11-15T07:43:15.060Z,3.20
2022-11-15T07:45:46.189Z,3.27
2022-11-15T07:48:12.890Z,3.32
2022-11-15T07:50:45.929Z,3.36
2022-11-15T07:53:12.833Z,3.41
2022-11-15T07:55:41.154Z,3.44
2022-11-15T07:58:10.119Z,3.44
2022-11-15T08:00:37.142Z,3.39
2022-11-15T08:03:11.639Z,3.66
2022-11-15T08:05:39.477Z,3.52
2022-11-15T08:08:06.764Z,3.54
2022-11-15T08:10:39.273Z,3.52
2022-11-15T08:13:10.071Z,3.71
2022-11-15T08:15:37.765Z,3.71
2022-11-15T08:18:07.533Z,3.66
2022-11-15T08:20:35.106Z,3.72
2022-11-15T08:23:04.100Z,3.71
2022-11-15T08:25:31.994Z,3.66
2022-11-15T08:28:01.447Z,3.69
2022-11-15T08:30:28.610Z,3.70
2022-11-15T08:32:57.329Z,3.66
2022-11-15T08:35:28.855Z,3.73
2022-11-15T08:37:56.186Z,3.78
2022-11-15T08:40:24.061Z,3.76
2022-11-15T08:42:50.746Z,3.87
2022-11-15T08:45:17.454Z,3.96
2022-11-15T08:47:44.045Z,3.97
2022-11-15T08:50:10.829Z,4.06
2022-11-15T08:52:37.423Z,4.05
2022-11-15T08:55:04.366Z,4.20
2022-11-15T08:57:33.811Z,4.25
2022-11-15T09:00:00.453Z,4.34
2022-11-15T09:02:27.115Z,4.39
2022-11-15T09:04:53.748Z,4.58
2022-11-15T09:07:20.429Z,4.52
2022-11-15T09:09:47.304Z,4.61
2022-11-15T09:12:13.962Z,4.65
2022-11-15T09:14:40.582Z,4.60
2022-11-15T09:17:09.719Z,4.67
2022-11-15T09:19:36.345Z,4.75
2022-11-15T09:22:02.945Z,4.78
2022-11-15T09:24:29.546Z,4.71
2022-11-15T09:26:56.153Z,4.87
2022-11-15T09:29:22.740Z,5.05
2022-11-15T09:31:49.546Z,4.99
2022-11-15T09:34:16.196Z,5.09
2022-11-15T09:36:42.979Z,5.27
2022-11-15T09:39:10.305Z,5.33
2022-11-15T09:41:58.993Z,5.34
2022-11-15T09:44:49.409Z,5.47
2022-11-15T09:47:37.064Z,5.67
2022-11-15T09:50:10.750Z,5.84
2022-11-15T09:52:37.872Z,6.08
2022-11-15T09:55:06.278Z,5.94
2022-11-15T09:57:35.822Z,6.00
2022-11-15T10:03:18.288Z,6.29
2022-11-15T10:05:47.496Z,6.36
2022-11-15T10:08:38.845Z,6.53
2022-11-15T10:14:01.632Z,6.90
2022-11-15T10:16:50.813Z,6.90
2022-11-15T10:19:27.161Z,7.02
2022-11-15T10:21:59.773Z,7.28
2022-11-15T10:24:31.861Z,7.31
2022-11-15T10:26:58.466Z,7.50
2022-11-15T10:29:27.168Z,7.74
2022-11-15T10:31:54.077Z,8.09
2022-11-15T10:34:22.936Z,7.97
2022-11-15T10:36:57.096Z,8.18
2022-11-15T10:39:24.134Z,8.45
2022-11-15T10:41:51.235Z,8.59
2022-11-15T10:44:17.738Z,8.70
2022-11-15T10:46:49.028Z,8.94
2022-11-15T10:49:22.908Z,9.10
2022-11-15T10:51:54.524Z,9.09
2022-11-15T10:55:00.022Z,9.27
2022-11-15T10:57:33.104Z,9.39
2022-11-15T11:00:07.017Z,9.37
2022-11-15T11:02:55.550Z,9.55
2022-11-15T11:05:41.785Z,9.66
2022-11-15T11:08:15.583Z,9.91
2022-11-15T11:11:01.970Z,9.98
2022-11-15T11:13:34.870Z,9.94
2022-11-15T11:16:20.309Z,10.08
2022-11-15T11:19:02.221Z,10.18
2022-11-15T11:21:57.427Z,10.26
2022-11-15T11:24:37.947Z,10.02
2022-11-15T11:27:23.325Z,10.23
2022-11-15T11:30:00.260Z,10.36
2022-11-15T11:32:42.195Z,10.39
2022-11-15T11:35:27.301Z,10.11
2022-11-15T11:38:28.851Z,10.15
2022-11-15T11:41:05.482Z,10.14
2022-11-15T11:43:56.907Z,10.30
2022-11-15T11:46:51.328Z,10.36
2022-11-15T11:49:20.251Z,10.21
2022-11-15T11:52:03.672Z,10.54
2022-11-15T11:54:57.561Z,10.32
2022-11-15T11:57:32.671Z,10.36
2022-11-15T12:00:05.194Z,10.33
2022-11-15T12:02:40.111Z,10.29
2022-11-15T12:05:19.484Z,10.27
2022-11-15T12:07:47.534Z,10.56
2022-11-15T12:10:21.007Z,10.68
2022-11-15T12:12:57.033Z,10.55
2022-11-15T12:15:27.433Z,10.45
2022-11-15T12:17:56.461Z,10.33
2022-11-15T12:20:31.657Z,10.31
2022-11-15T12:23:04.863Z,10.20
2022-11-15T12:25:38.314Z,10.34
2022-11-15T12:28:22.025Z,10.39
2022-11-15T12:30:52.722Z,10.39
2022-11-15T12:33:35.111Z,10.32
2022-11-15T12:36:26.905Z,10.22
2022-11-15T12:38:57.655Z,10.30
2022-11-15T12:41:35.355Z,10.34
2022-11-15T12:44:03.773Z,10.06
2022-11-15T12:46:30.482Z,10.12
2022-11-15T12:49:10.595Z,10.03
2022-11-15T12:51:43.481Z,10.21
2022-11-15T12:54:25.419Z,10.02
2022-11-15T12:57:04.493Z,10.14
2022-11-15T12:59:59.674Z,10.07
2022-11-15T13:02:28.132Z,9.96
2022-11-15T13:05:19.516Z,9.91
2022-11-15T13:07:46.172Z,9.75
2022-11-15T13:10:12.782Z,9.65
2022-11-15T13:12:42.668Z,9.75
2022-11-15T13:15:12.381Z,9.70
2022-11-15T13:17:55.318Z,9.64
2022-11-15T13:20:33.328Z,9.54
2022-11-15T13:23:18.445Z,9.24
2022-11-15T13:26:08.055Z,9.55
2022-11-15T13:28:38.808Z,9.50
2022-11-15T13:31:29.897Z,9.27
2022-11-15T13:34:00.780Z,9.19
2022-11-15T13:36:30.683Z,9.19
2022-11-15T13:39:12.277Z,9.28
2022-11-15T13:41:47.435Z,9.53
2022-11-15T13:44:24.780Z,9.30
2022-11-15T13:47:04.622Z,9.08
2022-11-15T13:49:33.110Z,8.90
2022-11-15T13:52:01.336Z,8.81
2022-11-15T13:54:27.857Z,8.96
2022-11-15T13:56:57.016Z,8.78
2022-11-15T13:59:29.675Z,8.73
2022-11-15T14:01:58.185Z,8.78
2022-11-15T14:04:26.765Z,8.54
2022-11-15T14:06:56.698Z,8.51
2022-11-15T14:09:34.853Z,8.65
2022-11-15T14:12:03.678Z,8.53
2022-11-15T14:14:31.091Z,8.54
2022-11-15T14:17:01.748Z,8.56
2022-11-15T14:19:28.358Z,8.38
2022-11-15T14:22:14.304Z,8.15
2022-11-15T14:24:42.382Z,8.32
2022-11-15T14:27:27.270Z,8.00
2022-11-15T14:29:54.421Z,7.76
2022-11-15T14:32:26.908Z,7.56
2022-11-15T14:35:01.868Z,7.58
2022-11-15T14:37:34.042Z,7.60
2022-11-15T14:40:00.912Z,7.38
2022-11-15T14:42:27.671Z,7.50
2022-11-15T14:44:54.272Z,7.53
2022-11-15T14:47:21.170Z,7.33
2022-11-15T14:49:48.265Z,7.27
2022-11-15T14:52:35.320Z,7.02
2022-11-15T14:55:04.144Z,6.86
2022-11-15T14:57:31.543Z,6.62
2022-11-15T14:59:58.154Z,6.72
2022-11-15T15:02:26.189Z,6.83
2022-11-15T15:04:53.129Z,6.63
2022-11-15T15:07:20.273Z,6.49
2022-11-15T15:09:47.341Z,6.35
2022-11-15T15:12:18.424Z,6.32
2022-11-15T15:14:46.196Z,6.33
2022-11-15T15:17:13.187Z,6.35
2022-11-15T15:19:39.771Z,6.28
2022-11-15T15:22:06.896Z,6.19
2022-11-15T15:24:33.572Z,6.12
2022-11-15T15:27:08.252Z,6.10
2022-11-15T15:29:37.025Z,6.28
2022-11-15T15:32:04.363Z,6.13
2022-11-15T15:34:31.271Z,5.98
2022-11-15T15:37:24.931Z,6.18
2022-11-15T15:39:56.370Z,6.06
2022-11-15T15:42:23.907Z,6.05
2022-11-15T15:44:51.101Z,5.99
2022-11-15T15:47:22.673Z,6.06
2022-11-15T15:49:50.181Z,5.97
2022-11-15T15:52:17.270Z,6.03
2022-11-15T15:54:43.985Z,5.95
2022-11-15T15:57:13.598Z,6.03
2022-11-15T15:59:40.230Z,5.73
2022-11-15T16:02:07.256Z,5.76
2022-11-15T16:04:33.870Z,5.86
2022-11-15T16:07:01.320Z,5.89
2022-11-15T16:09:46.578Z,5.73
2022-11-15T16:12:13.228Z,5.71
2022-11-15T16:14:39.998Z,5.60
2022-11-15T16:17:06.836Z,5.65
2022-11-15T16:19:33.463Z,5.63
2022-11-15T16:22:00.101Z,5.61
2022-11-15T16:24:29.901Z,5.56
2022-11-15T16:26:56.539Z,5.56
2022-11-15T16:29:23.234Z,5.75
2022-11-15T16:31:51.246Z,5.86
2022-11-15T16:34:18.630Z,5.74
2022-11-15T16:36:45.351Z,5.75
2022-11-15T16:39:14.225Z,5.67
2022-11-15T16:41:41.521Z,5.71
2022-11-15T16:44:08.265Z,5.63
2022-11-15T16:46:35.338Z,5.60
2022-11-15T16:49:13.270Z,5.62
2022-11-15T16:51:41.539Z,5.61
2022-11-15T16:54:08.548Z,5.63
2022-11-15T16:56:35.171Z,5.43
2022-11-15T16:59:01.983Z,5.51
2022-11-15T17:01:31.280Z,5.59
2022-11-15T17:03:58.047Z,5.45
2022-11-15T17:06:26.359Z,5.47
2022-11-15T17:08:53.183Z,5.63
2022-11-15T17:11:21.424Z,5.54
2022-11-15T17:13:49.545Z,5.55
2022-11-15T17:16:18.284Z,5.57
2022-11-15T17:18:45.729Z,5.61
2022-11-15T17:21:15.404Z,5.49
2022-11-15T17:23:42.797Z,5.59
2022-11-15T17:26:28.833Z,5.57
2022-11-15T17:28:57.518Z,5.61
2022-11-15T17:31:25.438Z,5.59
2022-11-15T17:33:52.148Z,5.56
2022-11-15T17:36:18.775Z,5.53
2022-11-15T17:38:50.336Z,5.45
2022-11-15T17:41:17.151Z,5.44
2022-11-15T17:43:43.856Z,5.67
2022-11-15T17:46:16.370Z,5.68
2022-11-15T17:48:44.288Z,5.74
2022-11-15T17:51:12.626Z,5.61
2022-11-15T17:53:42.089Z,5.74
2022-11-15T17:56:14.209Z,5.68
2022-11-15T17:58:41.321Z,5.70
2022-11-15T18:01:17.438Z,5.57
2022-11-15T18:03:44.418Z,5.68
2022-11-15T18:06:11.325Z,5.80
2022-11-15T18:08:39.320Z,5.71
2022-11-15T18:11:14.421Z,5.72
2022-11-15T18:13:49.514Z,5.67
2022-11-15T18:16:20.557Z,5.77
2022-11-15T18:18:47.262Z,5.65
2022-11-15T18:21:14.864Z,5.57
2022-11-15T18:23:43.599Z,5.67
2022-11-15T18:26:12.479Z,5.80
2022-11-15T18:28:41.329Z,5.76
2022-11-15T18:31:22.061Z,5.69
2022-11-15T18:33:49.960Z,5.80
2022-11-15T18:36:19.419Z,5.76
2022-11-15T18:38:46.439Z,5.76
2022-11-15T18:41:17.888Z,5.66
2022-11-15T18:43:45.040Z,5.74
2022-11-15T18:46:14.055Z,5.65
2022-11-15T18:48:42.960Z,5.60
2022-11-15T18:51:12.272Z,5.56
2022-11-15T18:53:39.672Z,5.77
2022-11-15T18:56:09.005Z,5.80
2022-11-15T18:58:42.077Z,5.79
2022-11-15T19:01:12.372Z,5.65
2022-11-15T19:03:40.945Z,5.78
2022-11-15T19:06:12.460Z,5.76
2022-11-15T19:08:40.147Z,5.87
2022-11-15T19:11:13.934Z,5.86
2022-11-15T19:13:40.943Z,5.76
2022-11-15T19:16:08.225Z,5.75
2022-11-15T19:18:34.841Z,5.77
2022-11-15T19:21:14.836Z,5.58
2022-11-15T19:23:43.342Z,5.63
2022-11-15T19:26:15.448Z,5.68
2022-11-15T19:28:43.056Z,5.61
2022-11-15T19:31:17.018Z,5.65
2022-11-15T19:33:44.854Z,5.69
2022-11-15T19:36:15.716Z,5.71
2022-11-15T19:38:42.863Z,5.56
2022-11-15T19:41:14.867Z,5.67
2022-11-15T19:43:41.699Z,5.65
2022-11-15T19:46:11.059Z,5.64
2022-11-15T19:48:38.313Z,5.63
2022-11-15T19:51:11.223Z,5.50
2022-11-15T19:53:38.549Z,5.45
2022-11-15T19:56:07.639Z,5.42
2022-11-15T19:58:34.804Z,5.47
2022-11-15T20:01:03.480Z,5.52
2022-11-15T20:03:31.471Z,5.50
2022-11-15T20:06:09.033Z,5.39
2022-11-15T20:08:36.662Z,5.39
2022-11-15T20:11:04.370Z,5.38
2022-11-15T20:13:31.628Z,5.46
2022-11-15T20:15:58.547Z,5.43
2022-11-15T20:18:25.956Z,5.39
2022-11-15T20:20:52.795Z,5.31
2022-11-15T20:23:19.400Z,5.22
2022-11-15T20:25:47.424Z,5.32
2022-11-15T20:28:20.443Z,5.34
2022-11-15T20:30:47.924Z,5.36
2022-11-15T20:33:14.859Z,5.43
2022-11-15T20:35:41.624Z,5.38
2022-11-15T20:38:08.457Z,5.27
2022-11-15T20:40:35.414Z,5.40
2022-11-15T20:43:02.561Z,5.30
2022-11-15T20:45:29.345Z,5.33
2022-11-15T20:47:56.955Z,5.26
2022-11-15T20:50:41.468Z,5.13
2022-11-15T20:53:10.796Z,5.29
2022-11-15T20:55:48.454Z,5.34
2022-11-15T20:58:16.111Z,5.30
2022-11-15T21:00:44.836Z,5.18
2022-11-15T21:03:12.637Z,5.33
2022-11-15T21:05:40.954Z,5.37
2022-11-15T21:08:08.134Z,5.31
2022-11-15T21:10:53.610Z,5.26
2022-11-15T21:13:20.368Z,5.21
2022-11-15T21:15:47.227Z,5.41
2022-11-15T21:18:14.478Z,5.23
2022-11-15T21:20:41.602Z,5.29
2022-11-15T21:23:08.269Z,5.38
2022-11-15T21:25:34.951Z,5.31
2022-11-15T21:28:01.733Z,5.34
2022-11-15T21:30:28.349Z,5.19
2022-11-15T21:32:55.140Z,5.13
2022-11-15T21:35:22.653Z,5.12
2022-11-15T21:37:54.990Z,5.25
2022-11-15T21:40:23.265Z,5.22
2022-11-15T21:42:50.028Z,5.29
2022-11-15T21:45:16.805Z,5.39
2022-11-15T21:47:46.276Z,5.27
2022-11-15T21:50:14.230Z,5.24
2022-11-15T21:52:41.507Z,5.23
2022-11-15T21:55:08.855Z,5.30
2022-11-15T21:57:35.794Z,5.28
2022-11-15T22:00:21.290Z,5.31
2022-11-15T22:02:47.993Z,5.24
2022-11-15T22:05:14.666Z,5.13
2022-11-15T22:07:41.292Z,5.25
2022-11-15T22:10:08.425Z,5.22
2022-11-15T22:12:35.660Z,5.06
2022-11-15T22:15:02.347Z,5.18
2022-11-15T22:17:48.949Z,5.03
2022-11-15T22:20:42.995Z,5.17
2022-11-15T22:23:02.798Z,5.24
2022-11-15T22:25:29.382Z,5.14
2022-11-15T22:27:56.098Z,5.03
2022-11-15T22:30:24.171Z,5.14
2022-11-15T22:32:50.791Z,5.17
2022-11-15T22:35:17.469Z,5.22
2022-11-15T22:37:44.703Z,5.06
2022-11-15T22:40:11.402Z,5.07
2022-11-15T22:42:38.086Z,5.22
2022-11-15T22:45:04.993Z,5.19
2022-11-15T22:47:31.691Z,5.21
2022-11-15T22:49:58.368Z,5.15
2022-11-15T22:52:24.979Z,5.13
2022-11-15T22:54:51.724Z,5.18
2022-11-15T22:57:18.461Z,4.96
2022-11-15T22:59:45.912Z,5.15
2022-11-15T23:02:12.615Z,5.11
2022-11-15T23:04:39.235Z,5.02
2022-11-15T23:07:08.771Z,5.13
2022-11-15T23:09:35.495Z,5.03
2022-11-15T23:12:20.875Z,5.10
2022-11-15T23:14:47.665Z,4.91
2022-11-15T23:17:14.802Z,5.05
2022-11-15T23:19:41.420Z,5.12
2022-11-15T23:22:27.001Z,5.17
2022-11-15T23:24:53.686Z,5.04
2022-11-15T23:27:21.274Z,5.01
2022-11-15T23:30:06.636Z,5.09
2022-11-15T23:32:52.129Z,5.06
2022-11-15T23:35:19.016Z,5.12
2022-11-15T23:37:47.081Z,4.98
2022-11-15T23:40:15.968Z,5.02
2022-11-15T23:42:42.991Z,4.99
2022-11-15T23:45:09.651Z,4.97
2022-11-15T23:47:39.437Z,4.78
2022-11-15T23:50:06.998Z,4.71
2022-11-15T23:52:33.674Z,4.77
2022-11-15T23:55:00.401Z,4.83
2022-11-15T23:57:27.083Z,4.80
2022-11-15T23:59:54.117Z,4.78
